createdAt,value
2018-08-24T00:00:42.865Z,69.89
2018-08-24T00:01:42.856Z,68.68
2018-08-24T00:02:42.863Z,70.09
2018-08-24T00:03:42.835Z,70.29
2018-08-24T00:04:42.822Z,70.89
2018-08-24T00:05:42.812Z,70.19
2018-08-24T00:06:42.791Z,70.50
2018-08-24T00:07:42.808Z,69.79
2018-08-24T00:08:42.776Z,68.82
2018-08-24T00:09:42.760Z,68.38
2018-08-24T00:10:42.758Z,70.09
2018-08-24T00:11:42.738Z,68.95
2018-08-24T00:12:42.771Z,69.99
2018-08-24T00:13:42.757Z,69.69
2018-08-24T00:14:42.699Z,68.79
2018-08-24T00:15:42.687Z,67.48
2018-08-24T00:16:42.679Z,67.38
2018-08-24T00:17:42.663Z,70.29
2018-08-24T00:18:42.676Z,68.68
2018-08-24T00:19:42.642Z,69.59
2018-08-24T00:20:42.627Z,68.68
2018-08-24T00:21:42.615Z,70.86
2018-08-24T00:22:42.609Z,70.06
2018-08-24T00:23:42.620Z,68.65
2018-08-24T00:24:42.586Z,70.39
2018-08-24T00:25:42.574Z,68.76
2018-08-24T00:26:42.561Z,69.19
2018-08-24T00:27:42.550Z,71.30
2018-08-24T00:28:42.552Z,72.50
2018-08-24T00:29:42.524Z,70.59
2018-08-24T00:30:42.512Z,69.89
2018-08-24T00:31:42.555Z,68.99
2018-08-24T00:32:42.485Z,67.68
2018-08-24T00:33:42.498Z,69.15
2018-08-24T00:34:42.466Z,69.59
2018-08-24T00:35:42.458Z,70.39
2018-08-24T00:36:42.439Z,70.09
2018-08-24T00:37:42.425Z,68.76
2018-08-24T00:38:42.414Z,67.48
2018-08-24T00:39:42.422Z,68.95
2018-08-24T00:40:42.395Z,67.65
2018-08-24T00:41:42.379Z,68.95
2018-08-24T00:42:42.408Z,67.45
2018-08-24T00:43:42.351Z,68.95
2018-08-24T00:44:42.369Z,69.96
2018-08-24T00:45:42.328Z,72.47
2018-08-24T00:46:42.323Z,70.16
2018-08-24T00:47:42.305Z,75.08
2018-08-24T00:48:42.295Z,70.09
2018-08-24T00:49:42.313Z,73.91
2018-08-24T00:50:42.274Z,69.49
2018-08-24T00:51:42.255Z,69.99
2018-08-24T00:52:42.251Z,72.71
2018-08-24T00:53:42.231Z,76.42
2018-08-24T00:54:42.230Z,75.95
2018-08-24T00:55:42.238Z,73.64
2018-08-24T00:56:42.196Z,71.36
2018-08-24T00:57:42.193Z,71.56
2018-08-24T00:58:42.169Z,72.44
2018-08-24T00:59:43.049Z,72.37
2018-08-24T01:00:42.307Z,71.06
2018-08-24T01:01:42.202Z,70.36
2018-08-24T01:02:42.133Z,82.72
2018-08-24T01:03:42.291Z,84.88
2018-08-24T01:04:42.103Z,83.57
2018-08-24T01:05:42.164Z,80.83
2018-08-24T01:06:42.452Z,85.70
2018-08-24T01:07:42.195Z,87.82
2018-08-24T01:08:42.172Z,88.96
2018-08-24T01:09:42.046Z,88.20
2018-08-24T01:10:42.127Z,89.15
2018-08-24T01:11:42.129Z,89.55
2018-08-24T01:12:42.018Z,91.37
2018-08-24T01:13:42.062Z,90.50
2018-08-24T01:14:42.052Z,92.12
2018-08-24T01:15:41.981Z,92.16
2018-08-24T01:16:41.997Z,93.07
2018-08-24T01:17:42.007Z,92.86
2018-08-24T01:18:42.013Z,94.18
2018-08-24T01:19:41.931Z,93.27
2018-08-24T01:20:41.921Z,94.48
2018-08-24T01:21:41.912Z,94.68
2018-08-24T01:22:41.914Z,95.59
2018-08-24T01:23:42.219Z,94.79
2018-08-24T01:24:41.877Z,95.39
2018-08-24T01:25:41.947Z,95.29
2018-08-24T01:26:41.882Z,94.99
2018-08-24T01:27:41.878Z,96.00
2018-08-24T01:28:41.900Z,96.00
2018-08-24T01:29:41.888Z,96.25
2018-08-24T01:30:41.797Z,96.20
2018-08-24T01:31:41.788Z,96.14
2018-08-24T01:32:41.993Z,95.84
2018-08-24T01:33:41.771Z,96.70
2018-08-24T01:34:41.750Z,96.50
2018-08-24T01:35:41.739Z,97.25
2018-08-24T01:36:41.942Z,97.01
2018-08-24T01:37:41.827Z,97.05
2018-08-24T01:38:41.706Z,97.25
2018-08-24T01:39:42.931Z,97.21
2018-08-24T01:40:41.680Z,97.01
2018-08-24T01:41:42.703Z,96.95
2018-08-24T01:42:41.684Z,96.85
2018-08-24T01:43:42.167Z,96.65
2018-08-24T01:44:41.712Z,97.16
2018-08-24T01:45:41.890Z,97.25
2018-08-24T01:46:41.691Z,97.25
2018-08-24T01:47:41.729Z,96.59
2018-08-24T01:48:42.188Z,96.39
2018-08-24T01:49:42.123Z,96.19
2018-08-24T01:50:41.617Z,97.30
2018-08-24T01:51:42.027Z,97.20
2018-08-24T01:52:41.775Z,97.20
2018-08-24T01:53:41.536Z,97.10
2018-08-24T01:54:41.551Z,97.00
2018-08-24T01:55:41.592Z,97.40
2018-08-24T01:56:41.501Z,97.60
2018-08-24T01:57:41.508Z,98.21
2018-08-24T01:58:41.484Z,97.60
2018-08-24T01:59:41.465Z,97.85
2018-08-24T02:00:41.526Z,97.80
2018-08-24T02:01:41.437Z,98.36
2018-08-24T02:02:41.453Z,97.96
2018-08-24T02:03:41.414Z,97.85
2018-08-24T02:04:41.404Z,98.25
2018-08-24T02:05:41.451Z,98.05
2018-08-24T02:06:41.385Z,97.85
2018-08-24T02:07:41.405Z,97.45
2018-08-24T02:08:41.688Z,97.14
2018-08-24T02:09:41.344Z,97.14
2018-08-24T02:10:41.329Z,96.94
2018-08-24T02:11:41.799Z,97.60
2018-08-24T02:12:41.308Z,97.90
2018-08-24T02:13:41.429Z,97.85
2018-08-24T02:14:41.280Z,97.90
2018-08-24T02:15:41.310Z,97.85
2018-08-24T02:16:42.440Z,97.90
2018-08-24T02:17:41.251Z,97.96
2018-08-24T02:18:41.285Z,98.40
2018-08-24T02:19:41.227Z,98.05
2018-08-24T02:20:42.616Z,97.85
2018-08-24T02:21:41.197Z,98.05
2018-08-24T02:22:41.195Z,98.36
2018-08-24T02:23:41.602Z,97.75
2018-08-24T02:24:41.170Z,97.90
2018-08-24T02:25:41.238Z,98.00
2018-08-24T02:26:41.139Z,98.00
2018-08-24T02:27:41.133Z,98.25
2018-08-24T02:28:41.142Z,98.00
2018-08-24T02:29:41.109Z,98.00
2018-08-24T02:30:41.102Z,98.40
2018-08-24T02:31:41.090Z,98.40
2018-08-24T02:32:41.069Z,98.00
2018-08-24T02:33:41.090Z,97.90
2018-08-24T02:34:41.045Z,97.60
2018-08-24T02:35:41.037Z,98.10
2018-08-24T02:36:41.028Z,98.25
2018-08-24T02:37:41.019Z,97.90
2018-08-24T02:38:41.024Z,97.69
2018-08-24T02:39:40.993Z,98.10
2018-08-24T02:40:40.986Z,98.10
2018-08-24T02:41:40.969Z,97.69
2018-08-24T02:42:40.955Z,98.10
2018-08-24T02:43:40.964Z,97.69
2018-08-24T02:44:40.927Z,97.19
2018-08-24T02:45:40.926Z,97.39
2018-08-24T02:46:40.904Z,98.20
2018-08-24T02:47:40.892Z,97.94
2018-08-24T02:48:40.911Z,98.14
2018-08-24T02:49:40.868Z,98.10
2018-08-24T02:50:40.863Z,98.00
2018-08-24T02:51:40.852Z,97.80
2018-08-24T02:52:40.835Z,97.90
2018-08-24T02:53:40.850Z,97.64
2018-08-24T02:54:40.813Z,97.69
2018-08-24T02:55:40.810Z,97.80
2018-08-24T02:56:40.785Z,98.20
2018-08-24T02:57:40.785Z,97.90
2018-08-24T02:58:40.792Z,98.55
2018-08-24T02:59:40.757Z,98.14
2018-08-24T03:00:40.744Z,98.00
2018-08-24T03:01:40.729Z,98.25
2018-08-24T03:02:40.719Z,98.35
2018-08-24T03:03:40.700Z,98.05
2018-08-24T03:04:40.725Z,98.29
2018-08-24T03:05:40.831Z,98.05
2018-08-24T03:06:40.675Z,97.85
2018-08-24T03:07:40.661Z,98.14
2018-08-24T03:08:40.645Z,98.45
2018-08-24T03:09:40.656Z,97.94
2018-08-24T03:10:40.627Z,98.09
2018-08-24T03:11:40.616Z,98.29
2018-08-24T03:12:40.594Z,97.79
2018-08-24T03:13:40.586Z,98.09
2018-08-24T03:14:40.602Z,98.09
2018-08-24T03:15:40.572Z,98.29
2018-08-24T03:16:40.557Z,97.99
2018-08-24T03:17:40.535Z,98.54
2018-08-24T03:18:40.534Z,97.89
2018-08-24T03:19:40.537Z,98.54
2018-08-24T03:20:40.506Z,98.70
2018-08-24T03:21:40.498Z,98.65
2018-08-24T03:22:40.483Z,98.03
2018-08-24T03:23:40.465Z,97.94
2018-08-24T03:24:40.482Z,98.44
2018-08-24T03:25:40.447Z,98.14
2018-08-24T03:26:40.434Z,97.94
2018-08-24T03:27:40.417Z,98.44
2018-08-24T03:28:40.416Z,98.18
2018-08-24T03:29:40.419Z,98.54
2018-08-24T03:30:40.391Z,98.79
2018-08-24T03:31:40.376Z,98.79
2018-08-24T03:32:40.361Z,98.49
2018-08-24T03:33:40.358Z,98.08
2018-08-24T03:34:40.367Z,98.65
2018-08-24T03:35:40.324Z,98.03
2018-08-24T03:36:40.315Z,98.44
2018-08-24T03:37:40.305Z,98.90
2018-08-24T03:38:40.300Z,98.79
2018-08-24T03:39:40.277Z,98.79
2018-08-24T03:40:40.300Z,98.18
2018-08-24T03:41:40.253Z,98.18
2018-08-24T03:42:40.250Z,98.08
2018-08-24T03:43:40.241Z,98.99
2018-08-24T03:44:40.219Z,98.69
2018-08-24T03:45:40.276Z,98.69
2018-08-24T03:46:40.195Z,98.79
2018-08-24T03:47:40.184Z,98.49
2018-08-24T03:48:40.173Z,99.30
2018-08-24T03:49:40.165Z,98.39
2018-08-24T03:50:40.153Z,98.90
2018-08-24T03:51:40.162Z,99.24
2018-08-24T03:52:40.152Z,99.30
2018-08-24T03:53:40.128Z,98.99
2018-08-24T03:54:40.108Z,98.99
2018-08-24T03:55:40.098Z,98.90
2018-08-24T03:56:40.103Z,98.94
2018-08-24T03:57:40.075Z,99.10
2018-08-24T03:58:40.055Z,99.40
2018-08-24T03:59:40.047Z,99.14
2018-08-24T04:00:40.040Z,98.99
2018-08-24T04:01:40.047Z,98.99
2018-08-24T04:02:40.019Z,99.19
2018-08-24T04:03:40.007Z,99.30
2018-08-24T04:04:39.992Z,98.99
2018-08-24T04:05:39.983Z,98.99
2018-08-24T04:06:39.988Z,98.99
2018-08-24T04:07:39.951Z,99.30
2018-08-24T04:08:39.950Z,99.04
2018-08-24T04:09:39.929Z,98.79
2018-08-24T04:10:39.920Z,99.10
2018-08-24T04:11:39.932Z,99.19
2018-08-24T04:12:39.913Z,99.40
2018-08-24T04:13:39.882Z,99.70
2018-08-24T04:14:39.878Z,99.14
2018-08-24T04:15:39.872Z,99.30
2018-08-24T04:16:39.870Z,99.44
2018-08-24T04:17:39.836Z,99.35
2018-08-24T04:18:39.829Z,99.10
2018-08-24T04:19:39.813Z,98.99
2018-08-24T04:20:39.804Z,99.35
2018-08-24T04:21:39.818Z,99.35
2018-08-24T04:22:39.780Z,98.94
2018-08-24T04:23:39.773Z,98.43
2018-08-24T04:24:39.753Z,99.30
2018-08-24T04:25:39.772Z,99.35
2018-08-24T04:26:39.754Z,99.04
2018-08-24T04:27:39.721Z,98.99
2018-08-24T04:28:39.712Z,98.99
2018-08-24T04:29:39.696Z,99.35
2018-08-24T04:30:39.690Z,99.35
2018-08-24T04:31:39.693Z,98.94
2018-08-24T04:32:39.669Z,98.99
2018-08-24T04:33:39.648Z,99.55
2018-08-24T04:34:39.644Z,99.19
2018-08-24T04:35:39.629Z,99.35
2018-08-24T04:36:39.649Z,99.19
2018-08-24T04:37:39.605Z,99.30
2018-08-24T04:38:39.590Z,99.40
2018-08-24T04:39:39.588Z,99.44
2018-08-24T04:40:39.575Z,99.44
2018-08-24T04:41:39.584Z,99.30
2018-08-24T04:42:39.546Z,99.40
2018-08-24T04:43:39.531Z,99.50
2018-08-24T04:44:39.529Z,98.79
2018-08-24T04:45:39.619Z,99.10
2018-08-24T04:46:39.528Z,99.10
2018-08-24T04:47:39.493Z,99.19
2018-08-24T04:48:39.474Z,99.40
2018-08-24T04:49:39.470Z,99.15
2018-08-24T04:50:39.449Z,99.30
2018-08-24T04:51:39.465Z,99.05
2018-08-24T04:52:39.428Z,99.19
2018-08-24T04:53:39.413Z,99.30
2018-08-24T04:54:39.411Z,99.15
2018-08-24T04:55:39.394Z,99.15
2018-08-24T04:56:39.412Z,98.95
2018-08-24T04:57:39.369Z,99.15
2018-08-24T04:58:39.354Z,99.35
2018-08-24T04:59:39.352Z,99.55
2018-08-24T05:00:39.331Z,99.05
2018-08-24T05:01:39.328Z,98.65
2018-08-24T05:02:39.329Z,98.14
2018-08-24T05:03:39.295Z,97.94
2018-08-24T05:04:39.291Z,97.43
2018-08-24T05:05:39.290Z,97.94
2018-08-24T05:06:39.273Z,96.42
2018-08-24T05:07:39.279Z,96.92
2018-08-24T05:08:39.242Z,96.42
2018-08-24T05:09:39.226Z,96.42
2018-08-24T05:10:39.218Z,96.62
2018-08-24T05:11:39.206Z,97.38
2018-08-24T05:12:39.213Z,96.42
2018-08-24T05:13:39.183Z,96.82
2018-08-24T05:14:39.171Z,96.62
2018-08-24T05:15:39.152Z,97.58
2018-08-24T05:16:39.149Z,96.42
2018-08-24T05:17:39.156Z,97.53
2018-08-24T05:18:39.119Z,96.27
2018-08-24T05:19:39.108Z,96.37
2018-08-24T05:20:39.099Z,96.27
2018-08-24T05:21:39.093Z,96.27
2018-08-24T05:22:39.095Z,96.17
2018-08-24T05:23:39.060Z,95.97
2018-08-24T05:24:39.085Z,96.31
2018-08-24T05:25:39.040Z,96.72
2018-08-24T05:26:39.025Z,96.17
2018-08-24T05:27:39.037Z,96.22
2018-08-24T05:28:39.003Z,96.31
2018-08-24T05:29:38.990Z,96.67
2018-08-24T05:30:38.980Z,96.57
2018-08-24T05:31:38.971Z,96.27
2018-08-24T05:32:38.975Z,96.22
2018-08-24T05:33:38.945Z,96.78
2018-08-24T05:34:38.927Z,96.57
2018-08-24T05:35:38.990Z,96.47
2018-08-24T05:36:38.907Z,96.57
2018-08-24T05:37:38.918Z,96.57
2018-08-24T05:38:38.881Z,96.47
2018-08-24T05:39:38.870Z,94.75
2018-08-24T05:40:38.862Z,95.97
2018-08-24T05:41:38.853Z,95.56
2018-08-24T05:42:38.854Z,96.47
2018-08-24T05:43:38.825Z,96.47
2018-08-24T05:44:38.809Z,96.37
2018-08-24T05:45:38.796Z,96.07
2018-08-24T05:46:38.796Z,96.67
2018-08-24T05:47:38.795Z,96.37
2018-08-24T05:48:38.777Z,96.12
2018-08-24T05:49:38.748Z,95.92
2018-08-24T05:50:38.747Z,95.92
2018-08-24T05:51:38.733Z,96.47
2018-08-24T05:52:38.747Z,96.12
2018-08-24T05:53:38.709Z,95.82
2018-08-24T05:54:38.689Z,95.21
2018-08-24T05:55:38.699Z,95.92
2018-08-24T05:56:38.673Z,96.22
2018-08-24T05:57:38.661Z,95.42
2018-08-24T05:58:38.669Z,94.71
2018-08-24T05:59:38.641Z,95.62
2018-08-24T06:00:38.616Z,96.02
2018-08-24T06:01:38.608Z,95.21
2018-08-24T06:02:38.601Z,95.31
2018-08-24T06:03:38.613Z,95.31
2018-08-24T06:04:38.570Z,94.45
2018-08-24T06:05:38.594Z,95.62
2018-08-24T06:06:38.552Z,95.51
2018-08-24T06:07:38.536Z,95.82
2018-08-24T06:08:38.554Z,95.42
2018-08-24T06:09:38.517Z,94.81
2018-08-24T06:10:38.502Z,95.82
2018-08-24T06:11:38.492Z,94.60
2018-08-24T06:12:38.475Z,95.01
2018-08-24T06:13:38.491Z,94.81
2018-08-24T06:14:38.460Z,95.82
2018-08-24T06:15:38.444Z,96.02
2018-08-24T06:16:38.488Z,93.90
2018-08-24T06:17:38.423Z,95.67
2018-08-24T06:18:38.431Z,95.82
2018-08-24T06:19:38.394Z,94.66
2018-08-24T06:20:38.401Z,94.20
2018-08-24T06:21:38.376Z,92.84
2018-08-24T06:22:38.363Z,94.10
2018-08-24T06:23:38.374Z,94.56
2018-08-24T06:24:38.405Z,94.06
2018-08-24T06:25:38.336Z,94.36
2018-08-24T06:26:38.315Z,92.64
2018-08-24T06:27:38.348Z,92.44
2018-08-24T06:28:38.322Z,92.03
2018-08-24T06:29:38.278Z,93.15
2018-08-24T06:30:38.275Z,92.84
2018-08-24T06:31:38.264Z,93.55
2018-08-24T06:32:38.300Z,93.35
2018-08-24T06:33:38.264Z,93.04
2018-08-24T06:34:38.220Z,92.44
2018-08-24T06:35:38.218Z,93.04
2018-08-24T06:36:38.197Z,92.33
2018-08-24T06:37:38.196Z,92.74
2018-08-24T06:38:38.197Z,93.10
2018-08-24T06:39:38.175Z,91.58
2018-08-24T06:40:38.155Z,92.19
2018-08-24T06:41:38.201Z,92.09
2018-08-24T06:42:38.159Z,92.29
2018-08-24T06:43:38.141Z,91.18
2018-08-24T06:44:38.111Z,90.58
2018-08-24T06:45:38.095Z,91.49
2018-08-24T06:46:38.087Z,90.67
2018-08-24T06:47:38.182Z,91.99
2018-08-24T06:48:38.097Z,90.58
2018-08-24T06:49:38.053Z,90.98
2018-08-24T06:50:38.038Z,91.49
2018-08-24T06:51:38.023Z,92.90
2018-08-24T06:52:38.019Z,91.94
2018-08-24T06:53:38.174Z,93.87
2018-08-24T06:54:38.019Z,87.50
2018-08-24T06:55:37.983Z,89.42
2018-08-24T06:56:37.965Z,91.14
2018-08-24T06:57:37.960Z,91.85
2018-08-24T06:58:37.942Z,90.53
2018-08-24T06:59:38.007Z,92.96
2018-08-24T07:00:37.918Z,91.09
2018-08-24T07:01:37.905Z,90.19
2018-08-24T07:02:37.901Z,89.72
2018-08-24T07:03:37.885Z,89.17
2018-08-24T07:04:37.953Z,86.55
2018-08-24T07:05:37.971Z,88.01
2018-08-24T07:06:37.844Z,89.42
2018-08-24T07:07:37.841Z,89.42
2018-08-24T07:08:37.820Z,89.42
2018-08-24T07:09:37.834Z,89.72
2018-08-24T07:10:37.803Z,89.92
2018-08-24T07:11:37.791Z,90.19
2018-08-24T07:12:37.794Z,90.33
2018-08-24T07:13:37.767Z,90.28
2018-08-24T07:14:37.778Z,90.99
2018-08-24T07:15:37.738Z,89.88
2018-08-24T07:16:37.733Z,89.88
2018-08-24T07:17:37.717Z,88.17
2018-08-24T07:18:37.710Z,89.98
2018-08-24T07:19:37.724Z,89.68
2018-08-24T07:20:37.677Z,89.78
2018-08-24T07:21:37.673Z,87.76
2018-08-24T07:22:37.653Z,85.84
2018-08-24T07:23:37.644Z,86.15
2018-08-24T07:24:37.658Z,90.19
2018-08-24T07:25:37.621Z,90.39
2018-08-24T07:26:37.604Z,90.69
2018-08-24T07:27:37.600Z,87.96
2018-08-24T07:28:37.591Z,87.96
2018-08-24T07:29:37.601Z,88.87
2018-08-24T07:30:37.561Z,89.37
2018-08-24T07:31:37.555Z,88.47
2018-08-24T07:32:37.547Z,89.84
2018-08-24T07:33:37.556Z,89.13
2018-08-24T07:34:37.564Z,87.01
2018-08-24T07:35:37.502Z,87.36
2018-08-24T07:36:37.495Z,89.13
2018-08-24T07:37:37.475Z,89.78
2018-08-24T07:38:37.473Z,87.62
2018-08-24T07:39:37.543Z,86.41
2018-08-24T07:40:37.451Z,87.86
2018-08-24T07:41:37.531Z,84.79
2018-08-24T07:42:37.426Z,87.41
2018-08-24T07:43:37.414Z,88.02
2018-08-24T07:44:37.424Z,87.41
2018-08-24T07:45:37.384Z,86.91
2018-08-24T07:46:37.377Z,87.41
2018-08-24T07:47:37.365Z,86.51
2018-08-24T07:48:37.347Z,87.86
2018-08-24T07:49:37.338Z,89.13
2018-08-24T07:50:37.377Z,90.14
2018-08-24T07:51:37.321Z,90.24
2018-08-24T07:52:37.302Z,89.03
2018-08-24T07:53:37.291Z,89.34
2018-08-24T07:54:37.282Z,88.83
2018-08-24T07:55:37.295Z,89.58
2018-08-24T07:56:37.251Z,89.64
2018-08-24T07:57:37.245Z,89.78
2018-08-24T07:58:37.227Z,88.57
2018-08-24T07:59:37.222Z,87.36
2018-08-24T08:00:37.235Z,89.48
2018-08-24T08:01:37.193Z,88.06
2018-08-24T08:02:37.198Z,87.96
2018-08-24T08:03:37.170Z,88.47
2018-08-24T08:04:37.195Z,89.58
2018-08-24T08:05:37.172Z,87.96
2018-08-24T08:06:37.139Z,89.43
2018-08-24T08:07:37.120Z,89.43
2018-08-24T08:08:37.119Z,88.12
2018-08-24T08:09:37.098Z,87.92
2018-08-24T08:10:37.118Z,88.43
2018-08-24T08:11:37.072Z,88.53
2018-08-24T08:12:37.112Z,88.99
2018-08-24T08:13:37.052Z,88.32
2018-08-24T08:14:37.040Z,90.20
2018-08-24T08:15:37.054Z,87.78
2018-08-24T08:16:37.014Z,88.53
2018-08-24T08:17:37.004Z,88.18
2018-08-24T08:18:37.097Z,87.41
2018-08-24T08:19:36.982Z,86.61
2018-08-24T08:20:36.999Z,86.57
2018-08-24T08:21:36.952Z,87.48
2018-08-24T08:22:36.950Z,87.98
2018-08-24T08:23:36.938Z,87.18
2018-08-24T08:24:36.936Z,86.57
2018-08-24T08:25:36.937Z,86.71
2018-08-24T08:26:36.895Z,87.98
2018-08-24T08:27:36.891Z,86.71
2018-08-24T08:28:36.878Z,87.72
2018-08-24T08:29:36.863Z,86.91
2018-08-24T08:30:36.871Z,86.27
2018-08-24T08:31:36.842Z,84.39
2018-08-24T08:32:36.827Z,86.61
2018-08-24T08:33:36.820Z,84.49
2018-08-24T08:34:36.804Z,84.29
2018-08-24T08:35:36.822Z,86.21
2018-08-24T08:36:36.779Z,85.19
2018-08-24T08:37:36.805Z,86.21
2018-08-24T08:38:36.798Z,83.68
2018-08-24T08:39:36.759Z,87.36
2018-08-24T08:40:36.798Z,86.25
2018-08-24T08:41:36.721Z,85.80
2018-08-24T08:42:36.718Z,86.51
2018-08-24T08:43:36.698Z,88.06
2018-08-24T08:44:36.688Z,88.47
2018-08-24T08:45:36.708Z,89.37
2018-08-24T08:46:36.665Z,88.17
2018-08-24T08:47:36.654Z,87.56
2018-08-24T08:48:36.648Z,89.98
2018-08-24T08:49:36.636Z,88.21
2018-08-24T08:50:36.622Z,92.05
2018-08-24T08:51:36.637Z,91.03
2018-08-24T08:52:36.598Z,92.90
2018-08-24T08:53:36.737Z,92.49
2018-08-24T08:54:36.583Z,92.44
2018-08-24T08:55:36.566Z,92.24
2018-08-24T08:56:36.567Z,93.85
2018-08-24T08:57:36.538Z,94.06
2018-08-24T08:58:36.531Z,91.42
2018-08-24T08:59:36.522Z,93.08
2018-08-24T09:00:36.502Z,93.04
2018-08-24T09:01:36.519Z,93.04
2018-08-24T09:02:36.484Z,92.48
2018-08-24T09:03:36.473Z,93.79
2018-08-24T09:04:36.461Z,92.03
2018-08-24T09:05:36.447Z,92.44
2018-08-24T09:06:36.499Z,92.84
2018-08-24T09:07:36.462Z,92.54
2018-08-24T09:08:36.468Z,92.88
2018-08-24T09:09:36.398Z,93.75
2018-08-24T09:10:36.388Z,93.15
2018-08-24T09:11:36.393Z,94.81
2018-08-24T09:12:36.368Z,94.96
2018-08-24T09:13:36.348Z,94.76
2018-08-24T09:14:36.344Z,94.46
2018-08-24T09:15:36.331Z,94.66
2018-08-24T09:16:36.381Z,92.94
2018-08-24T09:17:36.305Z,94.06
2018-08-24T09:18:36.396Z,93.65
2018-08-24T09:19:36.287Z,93.24
2018-08-24T09:20:36.271Z,93.85
2018-08-24T09:21:36.285Z,93.04
2018-08-24T09:22:36.242Z,93.04
2018-08-24T09:23:36.228Z,94.26
2018-08-24T09:24:36.227Z,93.51
2018-08-24T09:25:36.246Z,93.00
2018-08-24T09:26:36.235Z,92.90
2018-08-24T09:27:36.192Z,94.01
2018-08-24T09:28:36.171Z,92.85
2018-08-24T09:29:36.167Z,92.76
2018-08-24T09:30:36.147Z,93.87
2018-08-24T09:31:36.140Z,94.27
2018-08-24T09:32:36.253Z,93.72
2018-08-24T09:33:36.115Z,91.60
2018-08-24T09:34:36.178Z,91.39
2018-08-24T09:35:36.097Z,91.90
2018-08-24T09:36:36.081Z,93.12
2018-08-24T09:37:36.101Z,93.01
2018-08-24T09:38:36.058Z,92.91
2018-08-24T09:39:36.052Z,92.97
2018-08-24T09:40:36.035Z,88.17
2018-08-24T09:41:36.057Z,90.34
2018-08-24T09:42:36.360Z,91.35
2018-08-24T09:43:36.018Z,92.26
2018-08-24T09:44:36.175Z,91.55
2018-08-24T09:45:35.981Z,91.76
2018-08-24T09:46:35.965Z,90.65
2018-08-24T09:47:35.988Z,91.91
2018-08-24T09:48:35.944Z,89.54
2018-08-24T09:49:35.930Z,89.70
2018-08-24T09:50:35.927Z,91.06
2018-08-24T09:51:35.935Z,90.77
2018-08-24T09:52:35.900Z,89.55
2018-08-24T09:53:35.910Z,89.35
2018-08-24T09:54:35.868Z,89.41
2018-08-24T09:55:35.855Z,89.41
2018-08-24T09:56:35.857Z,87.49
2018-08-24T09:57:35.839Z,87.60
2018-08-24T09:58:35.857Z,89.41
2018-08-24T09:59:35.812Z,85.58
2018-08-24T10:00:35.808Z,86.58
2018-08-24T10:01:35.794Z,86.29
2018-08-24T10:02:35.794Z,86.08
2018-08-24T10:03:35.765Z,87.49
2018-08-24T10:04:35.779Z,85.68
2018-08-24T10:05:35.748Z,84.77
2018-08-24T10:06:35.796Z,85.68
2018-08-24T10:07:35.714Z,87.49
2018-08-24T10:08:35.711Z,84.67
2018-08-24T10:09:35.724Z,86.55
2018-08-24T10:10:35.682Z,84.23
2018-08-24T10:11:35.681Z,87.65
2018-08-24T10:12:35.724Z,85.68
2018-08-24T10:13:35.653Z,85.94
2018-08-24T10:14:35.653Z,85.08
2018-08-24T10:15:35.627Z,86.18
2018-08-24T10:16:35.612Z,86.08
2018-08-24T10:17:35.602Z,84.27
2018-08-24T10:18:35.589Z,84.37
2018-08-24T10:19:35.617Z,86.58
2018-08-24T10:20:35.565Z,86.44
2018-08-24T10:21:35.557Z,85.17
2018-08-24T10:22:35.547Z,83.36
2018-08-24T10:23:35.535Z,81.35
2018-08-24T10:24:35.516Z,79.53
2018-08-24T10:25:35.537Z,83.06
2018-08-24T10:26:35.491Z,79.43
2018-08-24T10:27:35.480Z,83.76
2018-08-24T10:28:35.479Z,78.52
2018-08-24T10:29:35.472Z,82.35
2018-08-24T10:30:35.478Z,80.84
2018-08-24T10:31:35.443Z,79.69
2018-08-24T10:32:35.422Z,78.49
2018-08-24T10:33:35.422Z,83.12
2018-08-24T10:34:35.400Z,80.90
2018-08-24T10:35:35.416Z,79.46
2018-08-24T10:36:35.384Z,78.59
2018-08-24T10:37:35.372Z,80.70
2018-08-24T10:38:35.352Z,76.87
2018-08-24T10:39:35.347Z,77.17
2018-08-24T10:40:35.354Z,81.01
2018-08-24T10:41:35.317Z,76.57
2018-08-24T10:42:35.355Z,78.89
2018-08-24T10:43:35.332Z,73.55
2018-08-24T10:44:35.286Z,75.67
2018-08-24T10:45:35.299Z,76.20
2018-08-24T10:46:35.268Z,75.36
2018-08-24T10:47:35.251Z,73.95
2018-08-24T10:48:35.244Z,77.28
2018-08-24T10:49:35.230Z,71.13
2018-08-24T10:50:35.279Z,76.34
2018-08-24T10:51:35.200Z,78.35
2018-08-24T10:52:35.197Z,74.12
2018-08-24T10:53:35.183Z,76.84
2018-08-24T10:54:35.166Z,72.81
2018-08-24T10:55:35.200Z,77.61
2018-08-24T10:56:35.141Z,74.41
2018-08-24T10:57:35.133Z,77.00
2018-08-24T10:58:35.126Z,75.49
2018-08-24T10:59:35.107Z,74.74
2018-08-24T11:00:35.128Z,69.19
2018-08-24T11:01:35.091Z,69.85
2018-08-24T11:02:35.075Z,66.24
2018-08-24T11:03:35.068Z,69.82
2018-08-24T11:04:35.056Z,58.56
2018-08-24T11:05:35.069Z,57.83
2018-08-24T11:06:35.027Z,69.02
2018-08-24T11:07:35.046Z,63.42
2018-08-24T11:08:35.005Z,57.85
2018-08-24T11:09:35.181Z,49.74
2018-08-24T11:10:35.011Z,56.45
2018-08-24T11:11:34.978Z,55.82
2018-08-24T11:12:34.965Z,59.82
2018-08-24T11:13:34.958Z,60.19
2018-08-24T11:14:34.941Z,52.77
2018-08-24T11:15:34.959Z,57.67
2018-08-24T11:16:34.916Z,51.84
2018-08-24T11:17:34.915Z,55.44
2018-08-24T11:18:34.894Z,52.72
2018-08-24T11:19:34.891Z,51.52
2018-08-24T11:20:34.897Z,59.18
2018-08-24T11:21:34.873Z,56.68
2018-08-24T11:22:34.852Z,54.66
2018-08-24T11:23:34.839Z,51.95
2018-08-24T11:24:34.836Z,47.03
2018-08-24T11:25:34.843Z,45.24
2018-08-24T11:26:34.809Z,50.52
2018-08-24T11:27:34.799Z,53.81
2018-08-24T11:28:34.802Z,54.68
2018-08-24T11:29:34.775Z,53.56
2018-08-24T11:30:35.184Z,56.12
2018-08-24T11:31:35.251Z,53.64
2018-08-24T11:32:35.080Z,53.61
2018-08-24T11:33:34.732Z,50.80
2018-08-24T11:34:34.725Z,49.78
2018-08-24T11:35:34.715Z,51.87
2018-08-24T11:36:34.722Z,50.88
2018-08-24T11:37:34.684Z,52.37
2018-08-24T11:38:34.723Z,51.28
2018-08-24T11:39:34.671Z,44.74
2018-08-24T11:40:34.660Z,48.41
2018-08-24T11:41:34.798Z,45.53
2018-08-24T11:42:34.638Z,44.04
2018-08-24T11:43:34.618Z,48.14
2018-08-24T11:44:34.613Z,48.94
2018-08-24T11:45:34.605Z,47.14
2018-08-24T11:46:34.608Z,45.26
2018-08-24T11:47:34.575Z,50.43
2018-08-24T11:48:34.572Z,46.25
2018-08-24T11:49:34.551Z,45.08
2018-08-24T11:50:34.549Z,47.25
2018-08-24T11:51:34.556Z,48.56
2018-08-24T11:52:34.523Z,45.37
2018-08-24T11:53:34.510Z,42.59
2018-08-24T11:54:34.529Z,49.46
2018-08-24T11:55:34.493Z,46.37
2018-08-24T11:56:34.502Z,48.26
2018-08-24T11:57:34.472Z,46.97
2018-08-24T11:58:34.457Z,46.15
2018-08-24T11:59:34.439Z,48.14
2018-08-24T12:00:34.440Z,48.81
2018-08-24T12:01:34.446Z,46.23
2018-08-24T12:02:34.409Z,45.41
2018-08-24T12:03:34.399Z,45.49
2018-08-24T12:04:34.391Z,43.48
2018-08-24T12:05:34.378Z,44.67
2018-08-24T12:06:34.392Z,46.83
2018-08-24T12:07:34.359Z,40.47
2018-08-24T12:08:34.345Z,42.82
2018-08-24T12:09:34.338Z,36.58
2018-08-24T12:10:34.324Z,40.23
2018-08-24T12:11:34.339Z,40.03
2018-08-24T12:12:34.479Z,36.76
2018-08-24T12:13:34.293Z,38.85
2018-08-24T12:14:34.280Z,37.67
2018-08-24T12:15:34.269Z,37.05
2018-08-24T12:16:34.279Z,37.55
2018-08-24T12:17:34.254Z,32.91
2018-08-24T12:18:34.234Z,32.51
2018-08-24T12:19:34.228Z,38.98
2018-08-24T12:20:34.218Z,38.68
2018-08-24T12:21:34.270Z,40.17
2018-08-24T12:22:34.194Z,38.20
2018-08-24T12:23:34.189Z,37.60
2018-08-24T12:24:34.242Z,40.38
2018-08-24T12:25:34.161Z,42.66
2018-08-24T12:26:34.176Z,41.67
2018-08-24T12:27:34.140Z,40.07
2018-08-24T12:28:34.134Z,43.04
2018-08-24T12:29:34.118Z,42.35
2018-08-24T12:30:34.111Z,35.78
2018-08-24T12:31:34.123Z,40.25
2018-08-24T12:32:34.089Z,43.99
2018-08-24T12:33:34.077Z,43.79
2018-08-24T12:34:34.082Z,35.77
2018-08-24T12:35:34.057Z,40.33
2018-08-24T12:36:34.067Z,40.64
2018-08-24T12:37:34.032Z,37.85
2018-08-24T12:38:34.063Z,37.45
2018-08-24T12:39:34.129Z,37.05
2018-08-24T12:40:34.032Z,37.26
2018-08-24T12:41:33.984Z,43.60
2018-08-24T12:42:34.003Z,40.03
2018-08-24T12:43:33.979Z,38.05
2018-08-24T12:44:34.058Z,35.98
2018-08-24T12:45:35.087Z,39.97
2018-08-24T12:46:34.724Z,41.67
2018-08-24T12:47:33.969Z,43.96
2018-08-24T12:48:33.915Z,43.06
2018-08-24T12:49:33.898Z,38.22
2018-08-24T12:50:33.888Z,42.86
2018-08-24T12:51:33.873Z,41.58
2018-08-24T12:52:33.893Z,44.65